createdAt,value
2023-02-06T04:52:35.587Z,101502.31
2023-02-06T04:55:03.868Z,101500.75
2023-02-06T04:57:32.035Z,101508.47
2023-02-06T05:00:00.367Z,101511.81
2023-02-06T05:02:28.606Z,101505.63
2023-02-06T05:04:56.792Z,101516.81
2023-02-06T05:07:24.986Z,101520.31
2023-02-06T05:09:54.547Z,101511.06
2023-02-06T05:12:22.721Z,101516.53
2023-02-06T05:14:50.937Z,101501.41
2023-02-06T05:17:19.137Z,101512.13
2023-02-06T05:19:47.336Z,101512.53
2023-02-06T05:22:15.541Z,101515.19
2023-02-06T05:24:43.759Z,101505.13
2023-02-06T05:27:13.358Z,101495.75
2023-02-06T05:29:41.563Z,101498.25
2023-02-06T05:32:09.735Z,101495.66
2023-02-06T05:34:38.099Z,101496.56
2023-02-06T05:37:06.360Z,101488.78
2023-02-06T05:39:34.573Z,101484.13
2023-02-06T05:42:02.973Z,101487.16
2023-02-06T05:44:32.565Z,63265.84
2023-02-06T05:47:00.885Z,63265.84
2023-02-06T05:49:29.072Z,63265.84
2023-02-06T05:51:57.367Z,63265.84
2023-02-06T05:54:25.871Z,63265.84
2023-02-06T05:56:54.053Z,63265.84
2023-02-06T05:59:22.352Z,63265.84
2023-02-06T06:01:52.141Z,63265.84
2023-02-06T06:04:20.391Z,63265.84
2023-02-06T06:06:48.647Z,63265.84
2023-02-06T06:09:16.848Z,63265.84
2023-02-06T06:11:45.055Z,63265.84
2023-02-06T06:14:13.404Z,63265.84
2023-02-06T06:16:42.547Z,63265.84
2023-02-06T06:19:12.138Z,63265.84
2023-02-06T06:21:40.879Z,63265.84
2023-02-06T06:24:09.223Z,63265.84
2023-02-06T06:26:37.739Z,63265.84
2023-02-06T06:29:06.229Z,63265.84
2023-02-06T06:31:34.514Z,63265.84
2023-02-06T06:34:03.153Z,63265.84
2023-02-06T06:36:32.686Z,63265.84
2023-02-06T06:39:00.883Z,63265.84
2023-02-06T06:41:29.578Z,63265.84
2023-02-06T06:43:58.660Z,63265.84
2023-02-06T06:46:27.574Z,63265.84
2023-02-06T06:48:55.753Z,63265.84
2023-02-06T06:51:26.762Z,63265.84
2023-02-06T06:53:56.501Z,63265.84
2023-02-06T06:56:25.049Z,63265.84
2023-02-06T06:58:53.781Z,63265.84
2023-02-06T07:01:22.004Z,63265.84
2023-02-06T07:03:50.234Z,63265.84
2023-02-06T07:06:18.772Z,63265.84
2023-02-06T07:08:47.009Z,63265.84
2023-02-06T07:11:19.773Z,63265.84
2023-02-06T07:13:48.360Z,63265.84
2023-02-06T07:16:16.621Z,63265.84
2023-02-06T07:18:44.807Z,63265.84
2023-02-06T07:21:15.786Z,63265.84
2023-02-06T07:23:43.973Z,63265.84
2023-02-06T07:26:12.819Z,63265.84
2023-02-06T07:28:42.484Z,63265.84
2023-02-06T07:31:11.052Z,63265.84
2023-02-06T07:33:39.224Z,63265.84
2023-02-06T07:36:12.144Z,63265.84
2023-02-06T07:38:41.123Z,63265.84
2023-02-06T07:41:11.724Z,63265.84
2023-02-06T07:43:42.227Z,63265.84
2023-02-06T07:46:10.529Z,63265.84
2023-02-06T07:48:38.774Z,63265.84
2023-02-06T07:51:09.309Z,63265.84
2023-02-06T07:53:38.665Z,63265.84
2023-02-06T07:56:13.446Z,63265.84
